sensor_id;sensor_type;location;lat;lon;timestamp;temperature;humidity
52397;DHT22;38322;53.108;6.308;2022-08-19T05:01:32;14.20;99.90
52397;DHT22;38322;53.108;6.308;2022-08-19T05:04:00;14.20;99.90
52397;DHT22;38322;53.108;6.308;2022-08-19T05:06:27;14.30;99.90
52397;DHT22;38322;53.108;6.308;2022-08-19T05:08:54;14.30;99.90
52397;DHT22;38322;53.108;6.308;2022-08-19T05:11:25;14.30;99.90
52397;DHT22;38322;53.108;6.308;2022-08-19T05:13:52;14.30;99.90
52397;DHT22;38322;53.108;6.308;2022-08-19T05:16:20;14.30;99.90
52397;DHT22;38322;53.108;6.308;2022-08-19T05:18:46;14.40;99.90
52397;DHT22;38322;53.108;6.308;2022-08-19T05:21:32;14.50;99.90
52397;DHT22;38322;53.108;6.308;2022-08-19T05:24:17;14.60;99.90
52397;DHT22;38322;53.108;6.308;2022-08-19T05:26:46;14.70;99.90
52397;DHT22;38322;53.108;6.308;2022-08-19T05:29:14;14.80;99.90
52397;DHT22;38322;53.108;6.308;2022-08-19T05:31:40;14.90;99.90
52397;DHT22;38322;53.108;6.308;2022-08-19T05:34:07;15.00;99.90
52397;DHT22;38322;53.108;6.308;2022-08-19T05:36:35;15.10;99.90
52397;DHT22;38322;53.108;6.308;2022-08-19T05:39:03;15.20;99.90
52397;DHT22;38322;53.108;6.308;2022-08-19T05:41:29;15.20;99.90
52397;DHT22;38322;53.108;6.308;2022-08-19T05:43:56;15.20;99.90
52397;DHT22;38322;53.108;6.308;2022-08-19T05:46:23;15.20;99.90
52397;DHT22;38322;53.108;6.308;2022-08-19T05:48:49;15.10;99.90
52397;DHT22;38322;53.108;6.308;2022-08-19T05:51:15;15.10;99.90
52397;DHT22;38322;53.108;6.308;2022-08-19T05:53:42;15.20;99.90
52397;DHT22;38322;53.108;6.308;2022-08-19T05:56:10;15.20;99.90
52397;DHT22;38322;53.108;6.308;2022-08-19T05:58:37;15.30;99.90
52397;DHT22;38322;53.108;6.308;2022-08-19T06:01:04;15.40;99.90
52397;DHT22;38322;53.108;6.308;2022-08-19T06:03:35;15.50;99.90
52397;DHT22;38322;53.108;6.308;2022-08-19T06:06:04;15.60;99.90
52397;DHT22;38322;53.108;6.308;2022-08-19T06:08:31;15.70;99.90
52397;DHT22;38322;53.108;6.308;2022-08-19T06:10:58;15.80;99.90
52397;DHT22;38322;53.108;6.308;2022-08-19T06:13:36;15.90;99.90
52397;DHT22;38322;53.108;6.308;2022-08-19T06:16:02;16.00;99.90
52397;DHT22;38322;53.108;6.308;2022-08-19T06:18:28;16.10;99.90
52397;DHT22;38322;53.108;6.308;2022-08-19T06:20:54;16.20;99.90
52397;DHT22;38322;53.108;6.308;2022-08-19T06:23:20;16.30;99.90
52397;DHT22;38322;53.108;6.308;2022-08-19T06:25:47;16.40;99.90
52397;DHT22;38322;53.108;6.308;2022-08-19T06:28:13;16.50;99.90
52397;DHT22;38322;53.108;6.308;2022-08-19T06:30:40;16.60;99.90
52397;DHT22;38322;53.108;6.308;2022-08-19T06:33:10;16.70;99.90
52397;DHT22;38322;53.108;6.308;2022-08-19T06:35:39;16.80;99.90
52397;DHT22;38322;53.108;6.308;2022-08-19T06:38:05;16.90;99.90
52397;DHT22;38322;53.108;6.308;2022-08-19T06:40:31;16.90;99.90
52397;DHT22;38322;53.108;6.308;2022-08-19T06:42:57;17.00;99.90
52397;DHT22;38322;53.108;6.308;2022-08-19T06:45:25;17.10;99.90
52397;DHT22;38322;53.108;6.308;2022-08-19T06:47:52;17.10;99.90
52397;DHT22;38322;53.108;6.308;2022-08-19T06:50:23;17.20;99.90
52397;DHT22;38322;53.108;6.308;2022-08-19T06:52:49;17.30;99.90
52397;DHT22;38322;53.108;6.308;2022-08-19T06:55:15;17.30;99.90
52397;DHT22;38322;53.108;6.308;2022-08-19T06:57:41;17.40;99.90
52397;DHT22;38322;53.108;6.308;2022-08-19T07:00:09;17.50;99.90
52397;DHT22;38322;53.108;6.308;2022-08-19T07:02:40;17.60;99.90
52397;DHT22;38322;53.108;6.308;2022-08-19T07:05:06;17.70;99.90
52397;DHT22;38322;53.108;6.308;2022-08-19T07:07:33;17.80;99.90
52397;DHT22;38322;53.108;6.308;2022-08-19T07:10:00;17.90;99.90
52397;DHT22;38322;53.108;6.308;2022-08-19T07:12:28;18.00;99.90
52397;DHT22;38322;53.108;6.308;2022-08-19T07:14:54;18.10;99.90
52397;DHT22;38322;53.108;6.308;2022-08-19T07:17:20;18.20;99.90
52397;DHT22;38322;53.108;6.308;2022-08-19T07:19:46;18.30;99.90
52397;DHT22;38322;53.108;6.308;2022-08-19T07:22:12;18.40;99.90
52397;DHT22;38322;53.108;6.308;2022-08-19T07:24:38;18.50;99.90
52397;DHT22;38322;53.108;6.308;2022-08-19T07:27:06;18.60;99.90
52397;DHT22;38322;53.108;6.308;2022-08-19T07:29:43;18.70;99.90
52397;DHT22;38322;53.108;6.308;2022-08-19T07:32:19;18.80;99.90
52397;DHT22;38322;53.108;6.308;2022-08-19T07:34:50;18.90;99.90
52397;DHT22;38322;53.108;6.308;2022-08-19T07:37:26;18.90;99.90
52397;DHT22;38322;53.108;6.308;2022-08-19T07:40:00;19.00;99.90
52397;DHT22;38322;53.108;6.308;2022-08-19T07:45:02;19.20;99.90
52397;DHT22;38322;53.108;6.308;2022-08-19T07:47:28;19.20;99.90
52397;DHT22;38322;53.108;6.308;2022-08-19T07:49:56;19.40;99.90
52397;DHT22;38322;53.108;6.308;2022-08-19T07:52:22;19.50;99.90
52397;DHT22;38322;53.108;6.308;2022-08-19T07:54:48;19.60;99.90
52397;DHT22;38322;53.108;6.308;2022-08-19T07:57:15;19.60;99.90
52397;DHT22;38322;53.108;6.308;2022-08-19T07:59:41;19.70;99.90
52397;DHT22;38322;53.108;6.308;2022-08-19T08:02:08;19.80;99.90
52397;DHT22;38322;53.108;6.308;2022-08-19T08:04:34;19.90;99.90
52397;DHT22;38322;53.108;6.308;2022-08-19T08:07:18;20.00;99.90
52397;DHT22;38322;53.108;6.308;2022-08-19T08:10:05;20.00;99.90
52397;DHT22;38322;53.108;6.308;2022-08-19T08:12:35;20.00;99.90
52397;DHT22;38322;53.108;6.308;2022-08-19T08:15:05;20.10;99.90
52397;DHT22;38322;53.108;6.308;2022-08-19T08:17:33;20.20;99.90
52397;DHT22;38322;53.108;6.308;2022-08-19T08:19:59;20.30;99.90
52397;DHT22;38322;53.108;6.308;2022-08-19T08:22:25;20.30;99.90
52397;DHT22;38322;53.108;6.308;2022-08-19T08:25:14;20.40;99.90
52397;DHT22;38322;53.108;6.308;2022-08-19T08:27:42;20.40;99.90
52397;DHT22;38322;53.108;6.308;2022-08-19T08:30:14;20.50;99.90
52397;DHT22;38322;53.108;6.308;2022-08-19T08:32:41;20.60;99.90
52397;DHT22;38322;53.108;6.308;2022-08-19T08:35:10;20.60;99.90
52397;DHT22;38322;53.108;6.308;2022-08-19T08:37:37;20.70;99.90
52397;DHT22;38322;53.108;6.308;2022-08-19T08:40:06;20.70;99.90
52397;DHT22;38322;53.108;6.308;2022-08-19T08:42:36;20.80;99.90
52397;DHT22;38322;53.108;6.308;2022-08-19T08:45:13;20.80;99.90
52397;DHT22;38322;53.108;6.308;2022-08-19T08:47:44;20.90;99.90
52397;DHT22;38322;53.108;6.308;2022-08-19T08:50:16;21.00;99.90
52397;DHT22;38322;53.108;6.308;2022-08-19T08:52:48;21.00;99.90
52397;DHT22;38322;53.108;6.308;2022-08-19T08:55:20;21.10;99.90
52397;DHT22;38322;53.108;6.308;2022-08-19T09:00:19;21.20;99.90
52397;DHT22;38322;53.108;6.308;2022-08-19T09:02:46;21.40;99.90
52397;DHT22;38322;53.108;6.308;2022-08-19T09:05:12;21.40;99.90
52397;DHT22;38322;53.108;6.308;2022-08-19T09:07:52;21.50;99.90
52397;DHT22;38322;53.108;6.308;2022-08-19T09:10:29;21.60;99.90
52397;DHT22;38322;53.108;6.308;2022-08-19T09:15:43;21.70;99.90
52397;DHT22;38322;53.108;6.308;2022-08-19T09:18:11;21.70;99.90
52397;DHT22;38322;53.108;6.308;2022-08-19T09:20:37;21.80;99.90
52397;DHT22;38322;53.108;6.308;2022-08-19T09:23:03;21.80;99.90
52397;DHT22;38322;53.108;6.308;2022-08-19T09:25:30;21.90;99.90
52397;DHT22;38322;53.108;6.308;2022-08-19T09:27:57;22.00;99.90
52397;DHT22;38322;53.108;6.308;2022-08-19T09:30:38;22.10;99.90
52397;DHT22;38322;53.108;6.308;2022-08-19T09:33:05;22.20;99.90
52397;DHT22;38322;53.108;6.308;2022-08-19T09:35:32;22.20;99.90
52397;DHT22;38322;53.108;6.308;2022-08-19T09:37:59;22.30;99.90
52397;DHT22;38322;53.108;6.308;2022-08-19T09:40:27;22.40;99.90
52397;DHT22;38322;53.108;6.308;2022-08-19T09:42:53;22.50;99.90
52397;DHT22;38322;53.108;6.308;2022-08-19T09:45:21;22.50;99.90
52397;DHT22;38322;53.108;6.308;2022-08-19T09:47:48;22.50;99.90
52397;DHT22;38322;53.108;6.308;2022-08-19T09:50:14;22.60;99.90
52397;DHT22;38322;53.108;6.308;2022-08-19T09:52:40;22.70;99.90
52397;DHT22;38322;53.108;6.308;2022-08-19T09:55:09;22.70;99.90
52397;DHT22;38322;53.108;6.308;2022-08-19T09:57:35;22.70;99.90
52397;DHT22;38322;53.108;6.308;2022-08-19T10:00:04;22.70;99.90
52397;DHT22;38322;53.108;6.308;2022-08-19T10:02:30;22.80;99.90
52397;DHT22;38322;53.108;6.308;2022-08-19T10:04:56;22.90;99.90
52397;DHT22;38322;53.108;6.308;2022-08-19T10:07:41;23.00;99.90
52397;DHT22;38322;53.108;6.308;2022-08-19T10:10:07;23.20;99.90
52397;DHT22;38322;53.108;6.308;2022-08-19T10:12:34;23.20;99.90
52397;DHT22;38322;53.108;6.308;2022-08-19T10:15:01;23.30;99.90
52397;DHT22;38322;53.108;6.308;2022-08-19T10:17:27;23.30;99.90
52397;DHT22;38322;53.108;6.308;2022-08-19T10:19:54;23.50;99.90
52397;DHT22;38322;53.108;6.308;2022-08-19T10:22:20;23.60;99.90
52397;DHT22;38322;53.108;6.308;2022-08-19T10:24:46;23.50;99.90
52397;DHT22;38322;53.108;6.308;2022-08-19T10:27:12;23.50;99.90
52397;DHT22;38322;53.108;6.308;2022-08-19T10:29:39;23.40;99.90
52397;DHT22;38322;53.108;6.308;2022-08-19T10:32:07;23.40;99.90
52397;DHT22;38322;53.108;6.308;2022-08-19T10:34:35;23.40;99.90
52397;DHT22;38322;53.108;6.308;2022-08-19T10:37:03;23.40;99.90
52397;DHT22;38322;53.108;6.308;2022-08-19T10:39:32;23.60;99.90
52397;DHT22;38322;53.108;6.308;2022-08-19T10:41:58;23.60;99.90
52397;DHT22;38322;53.108;6.308;2022-08-19T10:44:25;23.60;99.90
52397;DHT22;38322;53.108;6.308;2022-08-19T10:46:51;23.70;99.90
52397;DHT22;38322;53.108;6.308;2022-08-19T10:49:17;23.70;99.90
52397;DHT22;38322;53.108;6.308;2022-08-19T10:51:44;23.70;99.90
52397;DHT22;38322;53.108;6.308;2022-08-19T10:54:28;23.80;99.90
52397;DHT22;38322;53.108;6.308;2022-08-19T10:57:14;23.90;99.90
52397;DHT22;38322;53.108;6.308;2022-08-19T10:59:40;24.00;99.90
52397;DHT22;38322;53.108;6.308;2022-08-19T11:02:08;24.10;99.90
52397;DHT22;38322;53.108;6.308;2022-08-19T11:04:36;24.30;99.90
52397;DHT22;38322;53.108;6.308;2022-08-19T11:07:03;24.30;99.90
52397;DHT22;38322;53.108;6.308;2022-08-19T11:09:30;24.40;99.90
52397;DHT22;38322;53.108;6.308;2022-08-19T11:11:56;24.60;99.90
52397;DHT22;38322;53.108;6.308;2022-08-19T11:14:23;24.80;99.90
52397;DHT22;38322;53.108;6.308;2022-08-19T11:16:51;24.90;99.90
52397;DHT22;38322;53.108;6.308;2022-08-19T11:19:21;25.00;99.90
52397;DHT22;38322;53.108;6.308;2022-08-19T11:21:50;24.90;99.90
52397;DHT22;38322;53.108;6.308;2022-08-19T11:24:21;24.80;99.90
52397;DHT22;38322;53.108;6.308;2022-08-19T11:26:49;24.70;99.90
52397;DHT22;38322;53.108;6.308;2022-08-19T11:29:17;24.60;99.90
52397;DHT22;38322;53.108;6.308;2022-08-19T11:31:47;24.50;99.90
52397;DHT22;38322;53.108;6.308;2022-08-19T11:34:18;24.40;99.90
52397;DHT22;38322;53.108;6.308;2022-08-19T11:36:45;24.30;99.90
52397;DHT22;38322;53.108;6.308;2022-08-19T11:39:16;24.30;99.90
52397;DHT22;38322;53.108;6.308;2022-08-19T11:41:42;24.20;99.90
52397;DHT22;38322;53.108;6.308;2022-08-19T11:44:07;24.20;99.90
52397;DHT22;38322;53.108;6.308;2022-08-19T11:46:35;24.10;99.90
52397;DHT22;38322;53.108;6.308;2022-08-19T11:49:02;24.10;99.90
52397;DHT22;38322;53.108;6.308;2022-08-19T11:51:29;24.20;99.90
52397;DHT22;38322;53.108;6.308;2022-08-19T11:53:57;24.30;99.90
52397;DHT22;38322;53.108;6.308;2022-08-19T11:56:24;24.30;99.90
52397;DHT22;38322;53.108;6.308;2022-08-19T11:58:51;24.30;99.90
52397;DHT22;38322;53.108;6.308;2022-08-19T12:01:20;24.20;99.90
52397;DHT22;38322;53.108;6.308;2022-08-19T12:03:48;24.20;99.90
52397;DHT22;38322;53.108;6.308;2022-08-19T12:06:22;24.20;99.90
52397;DHT22;38322;53.108;6.308;2022-08-19T12:08:51;24.20;99.90
52397;DHT22;38322;53.108;6.308;2022-08-19T12:11:17;24.30;99.90
52397;DHT22;38322;53.108;6.308;2022-08-19T12:13:43;24.30;99.90
52397;DHT22;38322;53.108;6.308;2022-08-19T12:16:14;24.20;99.90
52397;DHT22;38322;53.108;6.308;2022-08-19T12:18:41;24.20;99.90
52397;DHT22;38322;53.108;6.308;2022-08-19T12:21:10;24.20;99.90
52397;DHT22;38322;53.108;6.308;2022-08-19T12:23:39;24.10;99.90
52397;DHT22;38322;53.108;6.308;2022-08-19T12:26:05;24.10;99.90
52397;DHT22;38322;53.108;6.308;2022-08-19T12:28:31;24.00;99.90
52397;DHT22;38322;53.108;6.308;2022-08-19T12:30:57;24.00;99.90
52397;DHT22;38322;53.108;6.308;2022-08-19T12:33:24;23.90;99.90
52397;DHT22;38322;53.108;6.308;2022-08-19T12:35:53;23.90;99.90
52397;DHT22;38322;53.108;6.308;2022-08-19T12:38:19;23.80;99.90
52397;DHT22;38322;53.108;6.308;2022-08-19T12:40:47;23.70;99.90
52397;DHT22;38322;53.108;6.308;2022-08-19T12:43:13;23.70;99.90
52397;DHT22;38322;53.108;6.308;2022-08-19T12:45:42;23.70;99.90
52397;DHT22;38322;53.108;6.308;2022-08-19T12:48:08;23.60;99.90
52397;DHT22;38322;53.108;6.308;2022-08-19T12:50:34;23.60;99.90
52397;DHT22;38322;53.108;6.308;2022-08-19T12:53:00;23.70;99.90
52397;DHT22;38322;53.108;6.308;2022-08-19T12:55:26;23.80;99.90
52397;DHT22;38322;53.108;6.308;2022-08-19T12:57:54;23.90;99.90
52397;DHT22;38322;53.108;6.308;2022-08-19T13:00:21;23.90;99.90
52397;DHT22;38322;53.108;6.308;2022-08-19T13:02:49;23.90;99.90
52397;DHT22;38322;53.108;6.308;2022-08-19T13:05:21;23.80;99.90
52397;DHT22;38322;53.108;6.308;2022-08-19T13:07:49;23.80;99.90
52397;DHT22;38322;53.108;6.308;2022-08-19T13:10:17;23.70;99.90
52397;DHT22;38322;53.108;6.308;2022-08-19T13:12:46;23.70;99.90
52397;DHT22;38322;53.108;6.308;2022-08-19T13:15:14;23.50;99.90
52397;DHT22;38322;53.108;6.308;2022-08-19T13:17:40;23.40;99.90
52397;DHT22;38322;53.108;6.308;2022-08-19T13:20:09;23.30;99.90
52397;DHT22;38322;53.108;6.308;2022-08-19T13:22:36;23.10;99.90
52397;DHT22;38322;53.108;6.308;2022-08-19T13:25:04;23.00;99.90
52397;DHT22;38322;53.108;6.308;2022-08-19T13:27:31;22.90;99.90
52397;DHT22;38322;53.108;6.308;2022-08-19T13:29:57;22.80;99.90
52397;DHT22;38322;53.108;6.308;2022-08-19T13:32:41;22.80;99.90
52397;DHT22;38322;53.108;6.308;2022-08-19T13:35:25;22.70;99.90
52397;DHT22;38322;53.108;6.308;2022-08-19T13:37:51;22.70;99.90
52397;DHT22;38322;53.108;6.308;2022-08-19T13:40:20;22.70;99.90
52397;DHT22;38322;53.108;6.308;2022-08-19T13:42:52;22.60;99.90
52397;DHT22;38322;53.108;6.308;2022-08-19T13:45:21;22.60;99.90
52397;DHT22;38322;53.108;6.308;2022-08-19T13:47:50;22.60;99.90
52397;DHT22;38322;53.108;6.308;2022-08-19T13:50:19;22.60;99.90
52397;DHT22;38322;53.108;6.308;2022-08-19T13:52:46;22.60;99.90
52397;DHT22;38322;53.108;6.308;2022-08-19T13:55:14;22.70;99.90
52397;DHT22;38322;53.108;6.308;2022-08-19T13:57:41;22.70;99.90
52397;DHT22;38322;53.108;6.308;2022-08-19T14:00:12;22.80;99.90
52397;DHT22;38322;53.108;6.308;2022-08-19T14:02:39;22.90;99.90
52397;DHT22;38322;53.108;6.308;2022-08-19T14:05:08;22.80;99.90
52397;DHT22;38322;53.108;6.308;2022-08-19T14:07:34;22.90;99.90
52397;DHT22;38322;53.108;6.308;2022-08-19T14:10:00;22.90;99.90
52397;DHT22;38322;53.108;6.308;2022-08-19T14:12:26;23.00;99.90
52397;DHT22;38322;53.108;6.308;2022-08-19T14:14:52;23.00;99.90
52397;DHT22;38322;53.108;6.308;2022-08-19T14:17:18;22.90;99.90
52397;DHT22;38322;53.108;6.308;2022-08-19T14:19:44;22.90;99.90
52397;DHT22;38322;53.108;6.308;2022-08-19T14:22:10;22.90;99.90
52397;DHT22;38322;53.108;6.308;2022-08-19T14:24:38;22.90;99.90
52397;DHT22;38322;53.108;6.308;2022-08-19T14:27:05;22.90;99.90
52397;DHT22;38322;53.108;6.308;2022-08-19T14:29:32;23.00;99.90
52397;DHT22;38322;53.108;6.308;2022-08-19T14:31:59;23.00;99.90
52397;DHT22;38322;53.108;6.308;2022-08-19T14:34:26;23.00;99.90
52397;DHT22;38322;53.108;6.308;2022-08-19T14:36:52;22.90;99.90
52397;DHT22;38322;53.108;6.308;2022-08-19T14:39:18;23.00;99.90
52397;DHT22;38322;53.108;6.308;2022-08-19T14:41:44;23.10;99.90
52397;DHT22;38322;53.108;6.308;2022-08-19T14:44:11;23.20;99.90
52397;DHT22;38322;53.108;6.308;2022-08-19T14:46:38;23.30;99.90
52397;DHT22;38322;53.108;6.308;2022-08-19T14:49:04;23.30;99.90
52397;DHT22;38322;53.108;6.308;2022-08-19T14:51:31;23.40;99.90
52397;DHT22;38322;53.108;6.308;2022-08-19T14:53:57;23.30;99.90
52397;DHT22;38322;53.108;6.308;2022-08-19T14:56:26;23.30;99.90
52397;DHT22;38322;53.108;6.308;2022-08-19T14:58:53;23.30;99.90
52397;DHT22;38322;53.108;6.308;2022-08-19T15:01:21;23.40;99.90
52397;DHT22;38322;53.108;6.308;2022-08-19T15:03:48;23.50;99.90
52397;DHT22;38322;53.108;6.308;2022-08-19T15:06:15;23.60;99.90
52397;DHT22;38322;53.108;6.308;2022-08-19T15:08:42;23.60;99.90
52397;DHT22;38322;53.108;6.308;2022-08-19T15:11:17;23.50;99.90
52397;DHT22;38322;53.108;6.308;2022-08-19T15:13:45;23.60;99.90
52397;DHT22;38322;53.108;6.308;2022-08-19T15:16:12;23.60;99.90
52397;DHT22;38322;53.108;6.308;2022-08-19T15:18:40;23.50;99.90
52397;DHT22;38322;53.108;6.308;2022-08-19T15:21:11;23.50;99.90
52397;DHT22;38322;53.108;6.308;2022-08-19T15:23:38;23.50;99.90
52397;DHT22;38322;53.108;6.308;2022-08-19T15:26:04;23.60;99.90
52397;DHT22;38322;53.108;6.308;2022-08-19T15:28:30;23.60;99.90
52397;DHT22;38322;53.108;6.308;2022-08-19T15:30:58;23.60;99.90
52397;DHT22;38322;53.108;6.308;2022-08-19T15:33:24;23.50;99.90
52397;DHT22;38322;53.108;6.308;2022-08-19T15:35:51;23.50;99.90
52397;DHT22;38322;53.108;6.308;2022-08-19T15:38:18;23.40;99.90
52397;DHT22;38322;53.108;6.308;2022-08-19T15:40:48;23.30;99.90
52397;DHT22;38322;53.108;6.308;2022-08-19T15:43:15;23.30;99.90
52397;DHT22;38322;53.108;6.308;2022-08-19T15:45:43;23.30;99.90
52397;DHT22;38322;53.108;6.308;2022-08-19T15:48:09;23.30;99.90
52397;DHT22;38322;53.108;6.308;2022-08-19T15:50:35;23.30;99.90
52397;DHT22;38322;53.108;6.308;2022-08-19T15:53:06;23.50;99.90
52397;DHT22;38322;53.108;6.308;2022-08-19T15:55:33;23.80;99.90
52397;DHT22;38322;53.108;6.308;2022-08-19T15:58:02;23.90;99.90
52397;DHT22;38322;53.108;6.308;2022-08-19T16:00:47;23.90;99.90
52397;DHT22;38322;53.108;6.308;2022-08-19T16:03:31;23.90;99.90
52397;DHT22;38322;53.108;6.308;2022-08-19T16:06:16;23.80;99.90
52397;DHT22;38322;53.108;6.308;2022-08-19T16:08:56;23.60;99.90
52397;DHT22;38322;53.108;6.308;2022-08-19T16:11:25;23.60;99.90
52397;DHT22;38322;53.108;6.308;2022-08-19T16:13:52;23.60;99.90
52397;DHT22;38322;53.108;6.308;2022-08-19T16:16:22;23.60;99.90
52397;DHT22;38322;53.108;6.308;2022-08-19T16:18:49;23.60;99.90
52397;DHT22;38322;53.108;6.308;2022-08-19T16:21:19;23.50;99.90
52397;DHT22;38322;53.108;6.308;2022-08-19T16:23:47;23.50;99.90
52397;DHT22;38322;53.108;6.308;2022-08-19T16:26:16;23.40;99.90
52397;DHT22;38322;53.108;6.308;2022-08-19T16:28:43;23.40;99.90
52397;DHT22;38322;53.108;6.308;2022-08-19T16:31:10;23.40;99.90
52397;DHT22;38322;53.108;6.308;2022-08-19T16:33:36;23.50;99.90
52397;DHT22;38322;53.108;6.308;2022-08-19T16:36:02;23.60;99.90
52397;DHT22;38322;53.108;6.308;2022-08-19T16:38:31;23.50;99.90
52397;DHT22;38322;53.108;6.308;2022-08-19T16:40:57;23.60;99.90
52397;DHT22;38322;53.108;6.308;2022-08-19T16:43:26;23.50;99.90
52397;DHT22;38322;53.108;6.308;2022-08-19T16:45:53;23.50;99.90
52397;DHT22;38322;53.108;6.308;2022-08-19T16:48:20;23.40;99.90
52397;DHT22;38322;53.108;6.308;2022-08-19T16:50:47;23.30;99.90
52397;DHT22;38322;53.108;6.308;2022-08-19T16:53:14;23.30;99.90
52397;DHT22;38322;53.108;6.308;2022-08-19T16:55:40;23.30;99.90
52397;DHT22;38322;53.108;6.308;2022-08-19T16:58:06;23.30;99.90
52397;DHT22;38322;53.108;6.308;2022-08-19T17:00:32;23.30;99.90
52397;DHT22;38322;53.108;6.308;2022-08-19T17:03:06;23.30;99.90
52397;DHT22;38322;53.108;6.308;2022-08-19T17:05:41;23.30;99.90
52397;DHT22;38322;53.108;6.308;2022-08-19T17:08:07;23.30;99.90
52397;DHT22;38322;53.108;6.308;2022-08-19T17:10:33;23.30;99.90
52397;DHT22;38322;53.108;6.308;2022-08-19T17:12:59;23.30;99.90
52397;DHT22;38322;53.108;6.308;2022-08-19T17:15:25;23.30;99.90
52397;DHT22;38322;53.108;6.308;2022-08-19T17:17:51;23.30;99.90
52397;DHT22;38322;53.108;6.308;2022-08-19T17:20:18;23.40;99.90
52397;DHT22;38322;53.108;6.308;2022-08-19T17:22:44;23.40;99.90
52397;DHT22;38322;53.108;6.308;2022-08-19T17:25:10;23.50;99.90
52397;DHT22;38322;53.108;6.308;2022-08-19T17:27:36;23.50;99.90
52397;DHT22;38322;53.108;6.308;2022-08-19T17:30:04;23.50;99.90
52397;DHT22;38322;53.108;6.308;2022-08-19T17:32:31;23.50;99.90
52397;DHT22;38322;53.108;6.308;2022-08-19T17:34:59;23.40;99.90
52397;DHT22;38322;53.108;6.308;2022-08-19T17:37:25;23.40;99.90
52397;DHT22;38322;53.108;6.308;2022-08-19T17:39:51;23.30;99.90
52397;DHT22;38322;53.108;6.308;2022-08-19T17:42:17;23.30;99.90
52397;DHT22;38322;53.108;6.308;2022-08-19T17:44:43;23.30;99.90
52397;DHT22;38322;53.108;6.308;2022-08-19T17:47:09;23.20;99.90
52397;DHT22;38322;53.108;6.308;2022-08-19T17:49:37;23.20;99.90
52397;DHT22;38322;53.108;6.308;2022-08-19T17:52:03;23.20;99.90
52397;DHT22;38322;53.108;6.308;2022-08-19T17:54:29;23.20;99.90
52397;DHT22;38322;53.108;6.308;2022-08-19T17:56:55;23.10;99.90
52397;DHT22;38322;53.108;6.308;2022-08-19T17:59:21;23.10;99.90
52397;DHT22;38322;53.108;6.308;2022-08-19T18:01:47;23.00;99.90
52397;DHT22;38322;53.108;6.308;2022-08-19T18:04:13;22.90;99.90
52397;DHT22;38322;53.108;6.308;2022-08-19T18:06:39;22.80;99.90
52397;DHT22;38322;53.108;6.308;2022-08-19T18:09:06;22.70;99.90
52397;DHT22;38322;53.108;6.308;2022-08-19T18:11:33;22.70;99.90
52397;DHT22;38322;53.108;6.308;2022-08-19T18:13:59;22.60;99.90
52397;DHT22;38322;53.108;6.308;2022-08-19T18:16:25;22.50;99.90
52397;DHT22;38322;53.108;6.308;2022-08-19T18:18:51;22.50;99.90
52397;DHT22;38322;53.108;6.308;2022-08-19T18:21:18;22.30;99.90
52397;DHT22;38322;53.108;6.308;2022-08-19T18:23:44;22.20;99.90
52397;DHT22;38322;53.108;6.308;2022-08-19T18:26:10;22.20;99.90
52397;DHT22;38322;53.108;6.308;2022-08-19T18:28:36;22.10;99.90
52397;DHT22;38322;53.108;6.308;2022-08-19T18:31:05;22.10;99.90
52397;DHT22;38322;53.108;6.308;2022-08-19T18:33:32;22.00;99.90
52397;DHT22;38322;53.108;6.308;2022-08-19T18:35:58;22.00;99.90
52397;DHT22;38322;53.108;6.308;2022-08-19T18:38:26;21.90;99.90
52397;DHT22;38322;53.108;6.308;2022-08-19T18:41:10;21.90;99.90
52397;DHT22;38322;53.108;6.308;2022-08-19T18:43:55;21.90;99.90
52397;DHT22;38322;53.108;6.308;2022-08-19T18:46:39;21.80;99.90
52397;DHT22;38322;53.108;6.308;2022-08-19T18:49:27;21.70;99.90
52397;DHT22;38322;53.108;6.308;2022-08-19T18:51:53;21.70;99.90
52397;DHT22;38322;53.108;6.308;2022-08-19T18:54:22;21.60;99.90
52397;DHT22;38322;53.108;6.308;2022-08-19T18:56:49;21.60;99.90
52397;DHT22;38322;53.108;6.308;2022-08-19T18:59:20;21.60;99.90
52397;DHT22;38322;53.108;6.308;2022-08-19T19:01:47;21.50;99.90
52397;DHT22;38322;53.108;6.308;2022-08-19T19:04:16;21.50;99.90
52397;DHT22;38322;53.108;6.308;2022-08-19T19:06:43;21.40;99.90
52397;DHT22;38322;53.108;6.308;2022-08-19T19:09:13;21.40;99.90
52397;DHT22;38322;53.108;6.308;2022-08-19T19:11:41;21.40;99.90
52397;DHT22;38322;53.108;6.308;2022-08-19T19:14:10;21.40;99.90
52397;DHT22;38322;53.108;6.308;2022-08-19T19:16:38;21.30;99.90
52397;DHT22;38322;53.108;6.308;2022-08-19T19:19:05;21.20;99.90
52397;DHT22;38322;53.108;6.308;2022-08-19T19:21:33;21.20;99.90
52397;DHT22;38322;53.108;6.308;2022-08-19T19:23:59;21.10;99.90
52397;DHT22;38322;53.108;6.308;2022-08-19T19:26:25;21.00;99.90
52397;DHT22;38322;53.108;6.308;2022-08-19T19:28:51;21.00;99.90
52397;DHT22;38322;53.108;6.308;2022-08-19T19:31:21;21.00;99.90
52397;DHT22;38322;53.108;6.308;2022-08-19T19:33:48;21.00;99.90
52397;DHT22;38322;53.108;6.308;2022-08-19T19:36:15;20.90;99.90
52397;DHT22;38322;53.108;6.308;2022-08-19T19:38:41;20.90;99.90
52397;DHT22;38322;53.108;6.308;2022-08-19T19:41:12;20.90;99.90
52397;DHT22;38322;53.108;6.308;2022-08-19T19:43:38;20.80;99.90
52397;DHT22;38322;53.108;6.308;2022-08-19T19:46:04;20.80;99.90
52397;DHT22;38322;53.108;6.308;2022-08-19T19:48:31;20.80;99.90
52397;DHT22;38322;53.108;6.308;2022-08-19T19:50:57;20.80;99.90
52397;DHT22;38322;53.108;6.308;2022-08-19T19:53:25;20.80;99.90
52397;DHT22;38322;53.108;6.308;2022-08-19T19:55:53;20.80;99.90
52397;DHT22;38322;53.108;6.308;2022-08-19T19:58:22;20.80;99.90
